Time;durP1;ratioP1;P1;durP2;ratioP2;P2;SDS_P1;SDS_P2;PMS_P1;PMS_P2;Temp;Humidity;BMP_temperature;BMP_pressure;BME280_temperature;BME280_humidity;BME280_pressure;Samples;Min_cycle;Max_cycle;Signal;HPM_P1;HPM_P2
2023/08/21 00:02:21;;;;;;;8.43;6.20;;;21.80;99.90;;;22.38;100.00;101562.84;5142591;28;20054;-70
2023/08/21 00:04:53;;;;;;;8.73;6.35;;;21.80;99.90;;;22.37;100.00;101568.19;5141374;28;20039;-70
2023/08/21 00:07:25;;;;;;;8.38;6.55;;;21.80;99.90;;;22.36;100.00;101569.03;5143375;28;20429;-71
2023/08/21 00:09:57;;;;;;;9.02;6.80;;;21.80;99.90;;;22.36;100.00;101559.31;5146172;28;20132;-71
2023/08/21 00:12:30;;;;;;;7.38;5.75;;;21.70;99.90;;;22.39;100.00;101555.78;5139808;28;20043;-71
2023/08/21 00:15:03;;;;;;;8.93;6.38;;;21.80;99.90;;;22.40;100.00;101550.44;5140803;28;20123;-70
2023/08/21 00:17:35;;;;;;;8.45;6.18;;;21.80;99.90;;;22.41;100.00;101557.53;5141227;28;20150;-71
2023/08/21 00:20:09;;;;;;;9.20;6.53;;;21.80;99.90;;;22.41;100.00;101557.53;5140281;28;20132;-71
2023/08/21 00:22:41;;;;;;;7.72;6.00;;;21.80;99.90;;;22.41;100.00;101557.53;5141760;28;20118;-70
2023/08/21 00:25:13;;;;;;;9.18;6.50;;;21.80;99.90;;;22.39;100.00;101548.69;5151446;28;20050;-72
2023/08/21 00:27:47;;;;;;;9.95;6.63;;;21.80;99.90;;;22.36;100.00;101546.00;5146774;28;20057;-70
2023/08/21 00:30:19;;;;;;;8.02;6.00;;;21.80;99.90;;;22.30;100.00;101543.41;5147059;28;20046;-71
2023/08/21 00:32:51;;;;;;;9.25;6.68;;;21.80;99.90;;;22.27;100.00;101548.69;5146272;28;20049;-69
2023/08/21 00:35:25;;;;;;;8.32;6.10;;;21.70;99.90;;;22.26;100.00;101551.38;5143454;28;20619;-70
2023/08/21 00:37:57;;;;;;;8.48;6.32;;;21.70;99.90;;;22.22;100.00;101537.19;5163854;28;20038;-70
2023/08/21 00:40:31;;;;;;;8.73;6.47;;;21.70;99.90;;;22.19;100.00;101534.56;5154769;28;20057;-70
2023/08/21 00:43:05;;;;;;;9.73;7.10;;;21.70;99.90;;;22.18;100.00;101535.44;5149234;28;20038;-69
2023/08/21 00:45:39;;;;;;;10.30;6.97;;;21.60;99.90;;;22.18;100.00;101538.09;5136712;28;20497;-70
2023/08/21 00:48:12;;;;;;;10.80;6.65;;;21.60;99.90;;;22.17;100.00;101536.34;5158829;28;20046;-71
2023/08/21 00:50:47;;;;;;;10.15;6.63;;;21.60;99.90;;;22.20;100.00;101538.97;5148720;28;20076;-71
2023/08/21 00:53:19;;;;;;;8.15;6.57;;;21.60;99.90;;;22.20;100.00;101536.31;5156826;28;20050;-71
2023/08/21 00:55:51;;;;;;;9.15;6.65;;;21.60;99.90;;;22.17;100.00;101531.91;5152562;28;20093;-69
2023/08/21 00:58:25;;;;;;;8.30;5.97;;;21.60;99.90;;;22.14;100.00;101531.03;5151028;28;20046;-70
2023/08/21 01:00:58;;;;;;;9.77;6.85;;;21.60;99.90;;;22.10;100.00;101540.75;5144005;28;20038;-72
2023/08/21 01:03:30;;;;;;;8.57;5.88;;;21.60;99.90;;;22.07;100.00;101542.50;5150378;28;20042;-70
2023/08/21 01:06:02;;;;;;;10.70;6.65;;;21.50;99.90;;;22.02;100.00;101547.81;5154357;28;20102;-70
2023/08/21 01:08:45;;;;;;;8.48;6.00;;;21.50;99.90;;;21.99;100.00;101546.94;5148895;28;20055;-71
2023/08/21 01:11:26;;;;;;;9.45;6.43;;;21.40;99.90;;;21.97;100.00;101549.56;5154233;28;20428;-70
2023/08/21 01:14:06;;;;;;;;;;;21.40;99.90;;;21.93;100.00;101554.00;5170834;28;20038;-70
2023/08/21 01:16:40;;;;;;;8.38;6.50;;;21.40;99.90;;;21.90;100.00;101555.75;5151765;28;19922;-70
2023/08/21 01:19:25;;;;;;;9.52;6.38;;;21.40;99.90;;;21.86;100.00;101552.25;5159792;28;20042;-70
2023/08/21 01:21:59;;;;;;;9.10;6.55;;;21.30;99.90;;;21.85;100.00;101560.22;5152263;28;20402;-71
2023/08/21 01:24:33;;;;;;;9.90;6.82;;;21.30;99.90;;;21.85;100.00;101566.41;5158576;28;20046;-70
2023/08/21 01:27:05;;;;;;;9.73;6.65;;;21.30;99.90;;;21.85;100.00;101558.44;5152113;28;20051;-70
2023/08/21 01:29:38;;;;;;;10.05;7.13;;;21.30;99.90;;;21.86;100.00;101568.16;5150009;28;20464;-70
2023/08/21 01:32:19;;;;;;;10.80;7.38;;;21.30;99.90;;;21.88;100.00;101565.50;5159112;28;20049;-71
2023/08/21 01:34:52;;;;;;;9.80;6.60;;;21.30;99.90;;;21.88;100.00;101566.38;5163014;28;20050;-71
2023/08/21 01:37:25;;;;;;;10.52;7.47;;;21.30;99.90;;;21.88;100.00;101568.16;5150760;28;20074;-71
2023/08/21 01:40:00;;;;;;;8.75;6.93;;;21.30;99.90;;;21.89;100.00;101557.53;5152970;28;20047;-70
2023/08/21 01:42:32;;;;;;;11.70;7.47;;;21.40;99.90;;;21.89;100.00;101562.84;5146007;28;20145;-73
2023/08/21 01:45:06;;;;;;;8.95;6.55;;;21.30;99.90;;;21.88;100.00;101561.06;5140608;28;20520;-71
2023/08/21 01:47:38;;;;;;;9.00;6.43;;;21.40;99.90;;;21.87;100.00;101561.09;5150206;28;20050;-70
2023/08/21 01:50:10;;;;;;;9.65;6.22;;;21.30;99.90;;;21.85;100.00;101557.56;5143688;28;20051;-71
2023/08/21 01:52:42;;;;;;;8.40;6.38;;;21.30;99.90;;;21.83;100.00;101557.53;5144128;28;20045;-70
2023/08/21 01:55:16;;;;;;;8.63;6.35;;;21.30;99.90;;;21.83;100.00;101559.31;5158096;28;20050;-71
2023/08/21 01:57:48;;;;;;;7.95;6.20;;;21.30;99.90;;;21.78;100.00;101553.09;5151045;28;20489;-70
2023/08/21 02:00:20;;;;;;;8.50;6.15;;;21.30;99.90;;;21.74;100.00;101554.88;5157768;28;20402;-70
2023/08/21 02:02:52;;;;;;;9.30;6.35;;;21.20;99.90;;;21.72;100.00;101550.47;5158230;28;20412;-70
2023/08/21 02:05:25;;;;;;;9.82;6.22;;;21.20;99.90;;;21.69;100.00;101564.59;5149957;28;20212;-71
2023/08/21 02:07:57;;;;;;;8.85;6.50;;;21.20;99.90;;;21.65;100.00;101560.19;5152609;28;20057;-71
2023/08/21 02:10:30;;;;;;;8.95;6.15;;;21.10;99.90;;;21.64;100.00;101567.22;5149663;28;20057;-70
2023/08/21 02:13:02;;;;;;;8.63;6.18;;;21.10;99.90;;;21.63;100.00;101561.94;5150708;28;20416;-70
2023/08/21 02:15:35;;;;;;;9.20;6.82;;;21.10;99.90;;;21.59;100.00;101558.41;5142253;28;20053;-71
2023/08/21 02:18:07;;;;;;;10.02;6.95;;;21.10;99.90;;;21.60;100.00;101554.00;5151933;28;20134;-70
2023/08/21 02:20:39;;;;;;;9.65;6.40;;;21.10;99.90;;;21.57;100.00;101554.84;5140945;28;20042;-70
2023/08/21 02:23:11;;;;;;;10.27;7.00;;;21.00;99.90;;;21.58;100.00;101558.38;5150419;28;20042;-70
2023/08/21 02:25:44;;;;;;;10.35;6.13;;;21.10;99.90;;;21.56;100.00;101562.81;5150508;28;20112;-70
2023/08/21 02:28:17;;;;;;;9.77;6.85;;;21.10;99.90;;;21.55;100.00;101563.69;5142837;28;20050;-70
2023/08/21 02:30:49;;;;;;;11.00;6.40;;;21.00;99.90;;;21.51;100.00;101564.56;5137800;28;20457;-70
2023/08/21 02:33:21;;;;;;;8.05;6.22;;;21.00;99.90;;;21.48;100.00;101560.16;5146474;28;20061;-71
2023/08/21 02:35:53;;;;;;;9.48;7.00;;;21.00;99.90;;;21.46;100.00;101555.72;5153494;28;20051;-71
2023/08/21 02:38:26;;;;;;;9.85;6.80;;;20.90;99.90;;;21.44;100.00;101557.47;5154630;28;20087;-70
2023/08/21 02:40:59;;;;;;;8.50;6.03;;;20.90;99.90;;;21.43;100.00;101558.38;5157508;28;20417;-71
2023/08/21 02:43:31;;;;;;;8.70;6.63;;;20.90;99.90;;;21.40;100.00;101557.47;5142666;28;20183;-71
2023/08/21 02:46:03;;;;;;;7.95;5.63;;;20.90;99.90;;;21.37;100.00;101557.47;5150625;28;20140;-70
2023/08/21 02:48:38;;;;;;;;;;;20.90;99.90;;;21.34;100.00;101564.53;5147092;28;20043;-72
2023/08/21 02:51:10;;;;;;;8.57;6.00;;;20.80;99.90;;;21.32;100.00;101568.94;5165050;28;20033;-70
2023/08/21 02:53:42;;;;;;;9.27;6.07;;;20.80;99.90;;;21.29;100.00;101560.97;5153218;28;20046;-70
2023/08/21 02:56:15;;;;;;;8.80;5.82;;;20.80;99.90;;;21.27;100.00;101554.78;5147477;28;20051;-71
2023/08/21 02:58:47;;;;;;;9.02;6.22;;;20.80;99.90;;;21.26;100.00;101556.53;5154947;28;20497;-70
2023/08/21 03:01:20;;;;;;;8.18;6.00;;;20.80;99.90;;;21.26;100.00;101555.66;5172706;28;20050;-71
2023/08/21 03:03:52;;;;;;;9.25;6.07;;;20.70;99.90;;;21.24;100.00;101552.97;5144327;28;20126;-73
2023/08/21 03:06:24;;;;;;;7.72;5.75;;;20.70;99.90;;;21.24;100.00;101560.94;5157900;28;20054;-71
2023/08/21 03:08:56;;;;;;;9.15;5.80;;;20.70;99.90;;;21.25;100.00;101561.81;5151147;28;20096;-71
2023/08/21 03:11:29;;;;;;;8.63;6.20;;;20.70;99.90;;;21.26;100.00;101553.00;5148937;28;20043;-70
2023/08/21 03:14:01;;;;;;;9.63;6.70;;;20.80;99.90;;;21.26;100.00;101564.50;5151435;28;20046;-71
2023/08/21 03:16:34;;;;;;;9.13;5.80;;;20.80;99.90;;;21.29;100.00;101561.88;5140523;28;20125;-71
2023/08/21 03:19:06;;;;;;;10.02;6.68;;;20.80;99.90;;;21.27;100.00;101566.25;5146027;28;20108;-71
2023/08/21 03:21:39;;;;;;;7.70;5.72;;;20.80;99.90;;;21.25;100.00;101572.41;5145961;28;20564;-70
2023/08/21 03:24:11;;;;;;;8.93;6.03;;;20.70;99.90;;;21.19;100.00;101562.72;5153117;28;20077;-70
2023/08/21 03:26:45;;;;;;;8.32;6.15;;;20.70;99.90;;;21.16;100.00;101573.28;5153618;28;20046;-71
2023/08/21 03:29:17;;;;;;;9.23;6.38;;;20.70;99.90;;;21.13;100.00;101567.97;5145883;28;20460;-70
2023/08/21 03:31:51;;;;;;;7.82;5.43;;;20.70;99.90;;;21.11;100.00;101553.81;5165953;28;20043;-71
2023/08/21 03:34:23;;;;;;;8.43;5.93;;;20.70;99.90;;;21.12;100.00;101550.28;5149566;28;20055;-71
2023/08/21 03:36:58;;;;;;;7.25;5.43;;;20.60;99.90;;;21.11;100.00;101545.88;5143765;28;20049;-70
2023/08/21 03:39:32;;;;;;;7.93;5.97;;;20.60;99.90;;;21.11;100.00;101548.50;5156794;28;20050;-70
2023/08/21 03:42:06;;;;;;;8.90;5.65;;;20.60;99.90;;;21.09;100.00;101558.22;5149583;28;20053;-70
2023/08/21 03:44:40;;;;;;;9.30;5.68;;;20.60;99.90;;;21.08;100.00;101560.00;5138571;28;20491;-71
2023/08/21 03:47:13;;;;;;;8.80;5.88;;;20.60;99.90;;;21.08;100.00;101549.41;5152756;28;20050;-69
2023/08/21 03:49:55;;;;;;;9.88;5.80;;;20.60;99.90;;;21.08;100.00;101551.16;5159761;28;20046;-72
2023/08/21 03:52:29;;;;;;;8.30;6.00;;;20.60;99.90;;;21.09;100.00;101551.16;5144077;28;20050;-72
2023/08/21 03:55:01;;;;;;;10.15;6.85;;;20.60;99.90;;;21.09;100.00;101547.63;5155756;28;20422;-72
2023/08/21 03:57:35;;;;;;;9.32;6.43;;;20.60;99.90;;;21.03;100.00;101540.53;5150404;28;20050;-71
2023/08/21 04:00:09;;;;;;;9.88;7.13;;;20.60;99.90;;;21.00;100.00;101535.25;5155864;28;20502;-70
2023/08/21 04:02:47;;;;;;;14.13;8.07;;;20.60;99.90;;;20.94;100.00;101542.28;5145047;28;20042;-71
2023/08/21 04:05:19;;;;;;;10.77;7.03;;;20.50;99.90;;;20.91;100.00;101545.78;5145583;28;20124;-71
2023/08/21 04:07:51;;;;;;;10.02;6.82;;;20.50;99.90;;;20.92;100.00;101546.66;5154349;28;20049;-70
2023/08/21 04:10:23;;;;;;;8.98;6.13;;;20.40;99.90;;;20.92;100.00;101539.59;5151714;28;20117;-70
2023/08/21 04:12:57;;;;;;;10.02;6.80;;;20.50;99.90;;;20.93;100.00;101549.34;5155760;28;20075;-71
2023/08/21 04:15:30;;;;;;;8.82;6.22;;;20.50;99.90;;;20.92;100.00;101546.66;5149659;28;20038;-72
2023/08/21 04:18:02;;;;;;;9.82;6.65;;;20.50;99.90;;;20.92;100.00;101542.25;5147680;28;20093;-70
2023/08/21 04:20:35;;;;;;;10.02;6.47;;;20.50;99.90;;;20.93;100.00;101544.06;5141563;28;20161;-71
2023/08/21 04:23:07;;;;;;;8.75;5.95;;;20.50;99.90;;;20.95;100.00;101552.00;5148515;28;20578;-70
2023/08/21 04:25:39;;;;;;;8.23;5.82;;;20.50;99.90;;;20.95;100.00;101557.31;5142090;28;20142;-72
2023/08/21 04:28:12;;;;;;;9.65;6.20;;;20.50;99.90;;;20.93;100.00;101559.03;5155620;28;20047;-71
2023/08/21 04:30:46;;;;;;;11.32;6.28;;;20.50;99.90;;;20.83;100.00;101559.00;5143578;28;20049;-70
2023/08/21 04:33:18;;;;;;;9.73;6.43;;;20.40;99.90;;;20.80;100.00;101564.31;5152579;28;20043;-70
2023/08/21 04:35:50;;;;;;;8.07;5.93;;;20.30;99.90;;;20.77;100.00;101561.63;5160856;28;20117;-71
2023/08/21 04:38:23;;;;;;;10.25;6.03;;;20.30;99.90;;;20.75;100.00;101560.75;5152470;28;20051;-71
2023/08/21 04:40:56;;;;;;;8.63;6.05;;;20.30;99.90;;;20.75;100.00;101565.16;5148544;28;20038;-71
2023/08/21 04:43:29;;;;;;;8.80;6.00;;;20.30;99.90;;;20.74;100.00;101561.63;5155990;28;20043;-70
2023/08/21 04:46:02;;;;;;;8.88;5.85;;;20.30;99.90;;;20.74;100.00;101558.97;5147398;28;20485;-71
2023/08/21 04:48:35;;;;;;;9.88;5.93;;;20.30;99.90;;;20.75;100.00;101560.75;5147894;28;20142;-71
2023/08/21 04:51:08;;;;;;;8.82;6.20;;;20.30;99.90;;;20.78;100.00;101559.84;5145421;28;20058;-72
2023/08/21 04:53:40;;;;;;;8.40;5.65;;;20.30;99.90;;;20.79;100.00;101562.50;5157126;28;20447;-71
2023/08/21 04:56:17;;;;;;;8.00;5.82;;;20.30;99.90;;;20.81;100.00;101566.06;5155108;28;20054;-72
2023/08/21 04:58:50;;;;;;;9.35;5.72;;;20.40;99.90;;;20.83;100.00;101574.03;5159937;28;20093;-70
2023/08/21 05:01:24;;;;;;;8.50;5.68;;;20.30;99.90;;;20.83;100.00;101568.72;5143638;28;20117;-70
2023/08/21 05:03:56;;;;;;;7.93;5.85;;;20.40;99.90;;;20.85;100.00;101577.56;5159685;28;20034;-71
2023/08/21 05:06:29;;;;;;;8.40;5.53;;;20.40;99.90;;;20.88;100.00;101571.41;5150828;28;20152;-70
2023/08/21 05:09:02;;;;;;;7.95;5.38;;;20.40;99.90;;;20.94;100.00;101579.38;5139443;28;20054;-70
2023/08/21 05:11:34;;;;;;;9.15;5.82;;;20.40;99.90;;;20.98;100.00;101578.50;5147659;28;20052;-71
2023/08/21 05:14:08;;;;;;;8.57;5.57;;;20.50;99.90;;;21.05;100.00;101580.31;5154328;28;20130;-71
2023/08/21 05:16:40;;;;;;;8.85;5.75;;;20.60;99.90;;;21.11;100.00;101580.31;5147133;28;20066;-70
2023/08/21 05:19:13;;;;;;;8.00;5.80;;;20.60;99.90;;;21.65;100.00;101584.97;5153583;28;20409;-71
2023/08/21 05:21:45;;;;;;;7.70;5.72;;;20.90;99.90;;;22.65;100.00;101582.28;5147597;28;20051;-70
2023/08/21 05:24:17;;;;;;;7.95;5.90;;;21.60;99.90;;;23.71;100.00;101588.06;5153964;28;20112;-70
2023/08/21 05:26:55;;;;;;;7.45;5.30;;;22.40;99.90;;;24.70;100.00;101586.31;5150954;28;20048;-72
2023/08/21 05:29:29;;;;;;;7.80;5.03;;;23.20;99.90;;;25.55;100.00;101601.25;5152128;28;20414;-70
2023/08/21 05:32:01;;;;;;;7.00;4.65;;;24.00;99.90;;;26.23;100.00;101602.00;5146741;28;20107;-72
2023/08/21 05:34:34;;;;;;;6.60;5.00;;;24.70;99.90;;;26.83;100.00;101603.59;5155369;28;20043;-71
2023/08/21 05:37:07;;;;;;;6.50;4.72;;;25.30;99.90;;;27.39;100.00;101603.34;5154106;28;20047;-71
2023/08/21 05:39:39;;;;;;;6.65;4.70;;;25.80;99.90;;;27.82;99.80;101606.81;5147818;28;20046;-72
2023/08/21 05:42:13;;;;;;;7.72;5.32;;;26.30;99.90;;;28.04;97.84;101601.84;5150697;28;20054;-71
2023/08/21 05:44:46;;;;;;;7.38;5.28;;;26.50;99.90;;;27.83;96.63;101605.03;5158171;28;20463;-71
2023/08/21 05:47:18;;;;;;;8.68;5.05;;;26.60;99.90;;;27.62;97.72;101603.69;5152987;28;20047;-72
2023/08/21 05:49:52;;;;;;;8.73;5.18;;;26.50;99.90;;;27.81;98.16;101607.75;5149053;28;20053;-69
2023/08/21 05:52:24;;;;;;;8.30;5.30;;;26.70;99.90;;;28.01;96.42;101609.06;5143177;28;20642;-66
2023/08/21 05:54:56;;;;;;;8.85;5.35;;;26.80;99.90;;;27.98;95.61;101614.50;5146708;28;20509;-68
2023/08/21 05:57:29;;;;;;;7.75;4.85;;;26.90;99.90;;;27.97;95.63;101608.25;5154994;28;20050;-66
2023/08/21 06:00:07;;;;;;;7.13;5.03;;;26.90;99.90;;;28.28;94.86;101608.34;5131260;28;20057;-67
2023/08/21 06:02:47;;;;;;;6.68;5.00;;;27.10;99.90;;;28.69;93.68;101611.78;5138869;28;20071;-66
2023/08/21 06:05:37;;;;;;;8.23;5.25;;;27.40;99.90;;;28.84;91.78;101618.50;5171042;28;20132;-59
2023/08/21 06:08:09;;;;;;;7.35;5.28;;;27.70;99.90;;;28.96;91.64;101618.22;5146254;28;20581;-58
2023/08/21 06:10:41;;;;;;;7.15;4.68;;;27.80;99.90;;;29.01;91.28;101610.88;5139010;28;20081;-58
2023/08/21 06:13:14;;;;;;;6.82;4.80;;;27.90;99.90;;;28.59;91.50;101612.94;5139671;28;20053;-58
2023/08/21 06:15:48;;;;;;;8.32;5.50;;;27.70;99.60;;;28.09;93.81;101613.28;5147167;28;20144;-63
2023/08/21 06:18:20;;;;;;;6.70;5.35;;;27.40;99.90;;;27.63;95.90;101610.81;5147783;28;20147;-58
2023/08/21 06:20:53;;;;;;;7.57;5.85;;;27.00;99.90;;;27.31;97.98;101612.41;5148014;28;20053;-59
2023/08/21 06:23:25;;;;;;;10.88;5.72;;;26.70;99.90;;;27.17;99.67;101619.84;5139429;28;20055;-58
2023/08/21 06:25:57;;;;;;;9.95;6.15;;;26.60;99.90;;;27.10;99.62;101622.69;5144661;28;20133;-58
2023/08/21 06:28:30;;;;;;;9.88;6.00;;;26.50;99.90;;;27.21;100.00;101624.25;5140084;28;20521;-58
2023/08/21 06:31:07;;;;;;;9.80;5.85;;;26.50;99.90;;;27.40;99.38;101626.53;5165325;28;20052;-59
2023/08/21 06:33:39;;;;;;;9.80;5.90;;;26.60;99.90;;;27.47;99.38;101638.88;5139496;28;20045;-60
2023/08/21 06:36:11;;;;;;;9.80;5.97;;;26.70;99.90;;;27.51;99.19;101630.72;5146000;28;20051;-61
2023/08/21 06:38:44;;;;;;;9.05;5.97;;;26.70;99.90;;;27.70;98.68;101636.56;5137238;28;20070;-58
2023/08/21 06:41:16;;;;;;;7.82;5.97;;;26.80;99.90;;;27.96;98.46;101637.75;5152153;28;20514;-59
2023/08/21 06:43:48;;;;;;;10.05;6.40;;;27.00;99.90;;;28.27;96.71;101633.41;5141498;28;20046;-58
2023/08/21 06:46:25;;;;;;;8.82;5.90;;;27.20;99.90;;;28.59;95.57;101637.09;5152690;28;20134;-58
2023/08/21 06:48:57;;;;;;;10.50;6.72;;;27.50;99.90;;;28.86;94.50;101632.75;5135441;28;20150;-65
2023/08/21 06:51:29;;;;;;;9.07;6.72;;;27.80;99.90;;;28.83;93.70;101639.09;5139728;28;20493;-65
2023/08/21 06:54:03;;;;;;;9.13;7.18;;;27.90;99.90;;;28.51;94.58;101644.47;5138458;28;20039;-64
2023/08/21 06:56:35;;;;;;;;;;;27.70;99.90;;;28.10;96.88;101638.28;5143459;28;20074;-64
2023/08/21 06:59:07;;;;;;;10.13;7.30;;;27.40;99.90;;;27.79;98.36;101635.50;5151296;28;19921;-62
2023/08/21 07:01:41;;;;;;;10.85;7.75;;;27.10;99.90;;;27.49;100.00;101637.03;5140036;28;20047;-61
2023/08/21 07:04:13;;;;;;;10.10;7.28;;;26.80;99.90;;;27.26;100.00;101625.03;5142150;28;20047;-60
2023/08/21 07:06:46;;;;;;;9.57;7.22;;;26.60;99.90;;;27.08;100.00;101630.78;5146887;28;20062;-61
2023/08/21 07:09:18;;;;;;;9.73;7.18;;;26.40;99.90;;;26.98;100.00;101629.16;5138558;28;20125;-61
2023/08/21 07:11:50;;;;;;;9.75;6.82;;;26.30;99.90;;;26.92;100.00;101630.16;5145196;28;20050;-61
2023/08/21 07:14:22;;;;;;;10.65;7.35;;;26.20;99.90;;;26.91;100.00;101622.16;5140675;28;20039;-62
2023/08/21 07:16:55;;;;;;;10.85;6.82;;;26.10;99.90;;;26.93;100.00;101634.59;5140901;28;20078;-61
2023/08/21 07:19:27;;;;;;;10.43;7.80;;;26.10;99.90;;;26.95;100.00;101629.22;5140815;28;20053;-61
2023/08/21 07:21:59;;;;;;;11.25;7.45;;;26.10;99.90;;;26.95;100.00;101624.75;5140834;28;20602;-62
2023/08/21 07:24:32;;;;;;;11.05;7.25;;;26.10;99.90;;;26.99;100.00;101633.56;5143308;28;20137;-61
2023/08/21 07:27:04;;;;;;;12.63;7.68;;;26.10;99.90;;;27.05;100.00;101628.13;5144133;28;20549;-62
2023/08/21 07:29:36;;;;;;;13.32;7.85;;;26.10;99.90;;;27.15;100.00;101632.41;5142841;28;20047;-62
2023/08/21 07:32:10;;;;;;;11.38;7.28;;;26.20;99.90;;;27.24;100.00;101642.03;5134882;28;20047;-61
2023/08/21 07:34:42;;;;;;;12.38;7.82;;;26.30;99.90;;;27.31;100.00;101628.47;5141670;28;20132;-61
2023/08/21 07:37:14;;;;;;;11.75;8.23;;;26.30;99.90;;;27.42;100.00;101630.06;5141657;28;20498;-62
2023/08/21 07:39:46;;;;;;;10.20;7.07;;;26.40;99.90;;;27.49;100.00;101637.03;5143601;28;20046;-61
2023/08/21 07:42:18;;;;;;;10.63;7.38;;;26.50;99.90;;;27.55;100.00;101627.06;5136977;28;20051;-60
2023/08/21 07:44:50;;;;;;;8.80;6.88;;;26.50;99.90;;;27.69;100.00;101634.81;5133489;28;20047;-62
2023/08/21 07:47:23;;;;;;;10.55;7.15;;;26.60;99.90;;;27.79;100.00;101628.34;5144442;28;20053;-63
2023/08/21 07:49:57;;;;;;;10.90;7.70;;;26.70;99.90;;;27.84;100.00;101639.84;5146923;28;20655;-61
2023/08/21 07:52:29;;;;;;;11.55;7.78;;;26.80;99.90;;;27.92;100.00;101631.59;5142494;28;20051;-61
2023/08/21 07:55:01;;;;;;;11.45;7.20;;;26.80;99.90;;;28.09;100.00;101639.22;5142839;28;20498;-62
2023/08/21 07:57:33;;;;;;;10.32;7.57;;;26.90;99.90;;;28.22;100.00;101640.66;5144604;28;20043;-63
2023/08/21 08:00:08;;;;;;;13.05;8.10;;;27.00;99.90;;;28.35;100.00;101635.91;5144562;28;20050;-60
2023/08/21 08:02:46;;;;;;;11.48;7.70;;;27.10;99.90;;;28.49;100.00;101636.44;5144404;28;20050;-62
2023/08/21 08:05:18;;;;;;;10.75;7.75;;;27.20;99.90;;;28.66;100.00;101634.19;5145001;28;20057;-61
2023/08/21 08:07:50;;;;;;;9.75;7.72;;;27.40;99.90;;;28.90;99.09;101634.44;5144558;28;20535;-61
2023/08/21 08:10:22;;;;;;;9.27;6.97;;;27.50;99.90;;;29.13;97.59;101640.03;5150716;28;20593;-62
2023/08/21 08:12:55;;;;;;;10.65;7.50;;;27.60;99.90;;;29.45;96.82;101640.91;5152041;28;20420;-61
2023/08/21 08:15:27;;;;;;;8.52;6.78;;;27.80;99.90;;;29.80;96.11;101637.16;5144789;28;20105;-61
2023/08/21 08:18:00;;;;;;;8.35;6.45;;;28.00;99.90;;;30.20;94.70;101638.59;5144084;28;20113;-61
2023/08/21 08:20:32;;;;;;;7.80;5.90;;;28.20;99.90;;;30.62;93.15;101644.28;5143729;28;20053;-61
2023/08/21 08:23:04;;;;;;;8.23;5.93;;;28.40;99.90;;;31.10;91.33;101637.19;5143980;28;20046;-62
2023/08/21 08:25:37;;;;;;;7.32;5.38;;;28.70;99.90;;;31.51;88.77;101641.91;5144232;28;20038;-62
2023/08/21 08:28:09;;;;;;;8.00;5.75;;;28.90;99.90;;;32.03;87.50;101642.53;5144028;28;20070;-63
2023/08/21 08:30:41;;;;;;;6.97;5.18;;;29.10;99.90;;;32.71;85.72;101651.34;5142022;28;20043;-63
2023/08/21 08:33:15;;;;;;;6.55;4.80;;;29.50;99.90;;;33.52;83.28;101649.47;5143851;28;20049;-63
2023/08/21 08:35:47;;;;;;;8.50;4.88;;;29.90;99.90;;;34.27;80.46;101650.25;5143193;28;20047;-63
2023/08/21 08:38:19;;;;;;;7.63;5.13;;;30.40;99.80;;;35.06;77.93;101650.66;5143262;28;20051;-63
2023/08/21 08:40:55;;;;;;;7.47;4.70;;;31.00;98.70;;;35.88;75.21;101649.72;5150612;28;20045;-64
2023/08/21 08:43:29;;;;;;;6.30;4.55;;;31.70;97.80;;;36.54;73.33;101654.00;5141869;28;20043;-65
2023/08/21 08:46:03;;;;;;;7.07;4.80;;;32.40;96.30;;;37.03;71.47;101651.84;5149818;28;20544;-65
2023/08/21 08:48:38;;;;;;;6.07;4.38;;;33.00;95.00;;;37.55;70.16;101650.38;5142482;28;20089;-65
2023/08/21 08:51:10;;;;;;;9.38;6.05;;;33.60;93.90;;;37.80;68.96;101655.13;5153023;28;20052;-64
2023/08/21 08:53:44;;;;;;;8.23;5.80;;;34.00;92.60;;;37.92;67.75;101651.59;5147754;28;20038;-66
2023/08/21 08:56:16;;;;;;;7.65;5.03;;;34.20;91.50;;;37.65;67.17;101649.69;5147054;28;20061;-66
2023/08/21 08:58:48;;;;;;;7.05;5.05;;;34.10;90.50;;;37.59;68.13;101635.63;5140566;28;20042;-64
2023/08/21 09:01:20;;;;;;;7.93;5.93;;;34.10;90.40;;;37.68;67.41;101635.88;5144120;28;20062;-64
2023/08/21 09:03:54;;;;;;;8.98;5.53;;;34.10;89.80;;;37.71;67.78;101645.69;5142857;28;20043;-64
2023/08/21 09:06:27;;;;;;;8.13;5.47;;;34.10;89.50;;;37.92;67.48;101638.84;5143422;28;20509;-65
2023/08/21 09:08:59;;;;;;;9.48;5.60;;;34.30;89.40;;;37.99;67.04;101642.91;5153272;28;20072;-66
2023/08/21 09:11:34;;;;;;;9.52;5.85;;;34.50;88.20;;;37.87;67.02;101649.16;5148261;28;20042;-64
2023/08/21 09:14:06;;;;;;;7.88;5.60;;;34.60;87.40;;;37.60;68.05;101646.41;5138474;28;20062;-64
2023/08/21 09:16:38;;;;;;;9.48;6.80;;;34.50;87.60;;;36.99;67.41;101644.00;5142605;28;20049;-63
2023/08/21 09:19:12;;;;;;;12.10;8.32;;;34.20;85.60;;;35.91;69.59;101648.69;5150731;28;20049;-62
2023/08/21 09:21:44;;;;;;;9.10;7.28;;;33.70;86.00;;;35.00;71.94;101637.44;5153281;28;20042;-64
2023/08/21 09:24:17;;;;;;;9.23;6.75;;;33.00;87.40;;;34.36;74.45;101632.66;5144061;28;20119;-62
2023/08/21 09:26:49;;;;;;;9.18;6.80;;;32.60;89.10;;;33.93;76.32;101644.81;5142615;28;20050;-62
2023/08/21 09:29:21;;;;;;;11.05;6.82;;;32.30;90.20;;;33.48;77.11;101640.66;5141551;28;20517;-62
2023/08/21 09:31:57;;;;;;;10.38;7.30;;;32.00;90.30;;;32.97;77.98;101638.53;5141570;28;20041;-62
2023/08/21 09:34:37;;;;;;;9.38;6.70;;;31.70;90.50;;;32.55;79.57;101639.47;5142050;28;20113;-62
2023/08/21 09:37:10;;;;;;;8.07;6.65;;;31.40;91.00;;;32.35;81.30;101634.94;5136747;28;20035;-62
2023/08/21 09:39:42;;;;;;;10.80;7.80;;;31.20;91.60;;;32.31;82.14;101633.28;5142399;28;20038;-60
2023/08/21 09:42:16;;;;;;;12.88;8.80;;;31.10;92.10;;;32.16;82.67;101633.94;5142439;28;20138;-63
2023/08/21 09:44:52;;;;;;;10.75;7.82;;;30.90;92.30;;;32.01;84.09;101636.31;5141953;28;20086;-62
2023/08/21 09:47:27;;;;;;;10.43;7.50;;;30.90;92.80;;;32.02;85.14;101624.63;5142095;28;20042;-61
2023/08/21 09:50:00;;;;;;;12.13;8.20;;;30.80;93.30;;;32.08;85.03;101624.34;5141739;28;20035;-63
2023/08/21 09:52:32;;;;;;;15.07;9.02;;;30.80;93.50;;;32.00;84.34;101631.00;5147839;28;20309;-59
2023/08/21 09:55:07;;;;;;;11.20;7.30;;;30.70;93.30;;;31.87;84.87;101623.41;5150898;28;20046;-61
2023/08/21 09:57:40;;;;;;;8.85;6.82;;;30.60;93.40;;;31.85;85.27;101621.72;5149647;28;20410;-59
2023/08/21 10:00:19;;;;;;;7.97;6.00;;;30.60;93.60;;;31.76;84.90;101627.47;5149457;28;20050;-60
2023/08/21 10:02:52;;;;;;;7.65;5.82;;;30.60;93.60;;;31.56;85.00;101614.75;5157086;28;20457;-58
2023/08/21 10:05:26;;;;;;;8.43;5.80;;;30.40;93.50;;;31.56;85.77;101621.06;5149034;28;20039;-62
2023/08/21 10:08:02;;;;;;;8.05;6.07;;;30.40;93.90;;;31.52;85.94;101618.53;5142122;28;20405;-62
2023/08/21 10:10:36;;;;;;;9.30;5.75;;;30.30;93.90;;;31.61;86.24;101616.34;5141974;28;20105;-62
2023/08/21 10:13:09;;;;;;;8.18;5.45;;;30.40;94.20;;;31.83;87.37;101610.13;5141938;28;20046;-62
2023/08/21 10:15:43;;;;;;;7.53;5.57;;;30.50;94.60;;;32.06;87.01;101604.66;5141643;28;20045;-62
2023/08/21 10:18:20;;;;;;;7.35;5.38;;;30.70;94.70;;;32.21;86.05;101610.31;5141201;28;20047;-62
2023/08/21 10:20:54;;;;;;;8.07;5.45;;;30.90;94.40;;;32.29;84.84;101602.81;5141419;28;20417;-62
2023/08/21 10:23:28;;;;;;;;;;;31.00;93.90;;;32.33;83.90;101596.34;5141701;28;20038;-62
2023/08/21 10:26:02;;;;;;;7.35;5.43;;;31.10;93.40;;;32.38;83.04;101600.59;5141729;28;19930;-62
2023/08/21 10:28:53;;;;;;;;;;;31.20;93.10;;;32.42;83.06;101595.97;5141796;28;20042;-62
2023/08/21 10:31:34;;;;;;;7.85;5.28;;;31.20;93.00;;;32.47;82.06;101588.50;5141047;28;19934;-62
2023/08/21 10:34:08;;;;;;;7.85;5.35;;;31.20;92.60;;;32.43;82.42;101588.75;5122885;28;20047;-62